createdAt,value
2023-05-08T00:00:59.437Z,3.87
2023-05-08T00:03:28.364Z,5.00
2023-05-08T00:05:57.131Z,4.50
2023-05-08T00:08:25.792Z,4.23
2023-05-08T00:10:54.409Z,4.93
2023-05-08T00:13:24.462Z,4.40
2023-05-08T00:15:53.130Z,4.90
2023-05-08T00:18:21.714Z,4.10
2023-05-08T00:20:50.343Z,4.53
2023-05-08T00:23:18.963Z,4.20
2023-05-08T00:25:47.692Z,4.50
2023-05-08T00:28:16.266Z,4.53
2023-05-08T00:30:46.214Z,5.30
2023-05-08T00:33:14.827Z,5.00
2023-05-08T00:35:43.424Z,5.00
2023-05-08T00:38:12.282Z,4.40
2023-05-08T00:40:41.049Z,4.80
2023-05-08T00:43:09.680Z,4.73
2023-05-08T00:45:39.592Z,4.87
2023-05-08T00:48:10.106Z,4.70
2023-05-08T00:50:38.617Z,5.80
2023-05-08T00:53:07.233Z,4.40
2023-05-08T00:55:35.830Z,4.57
2023-05-08T00:58:04.449Z,5.30
2023-05-08T01:00:33.074Z,5.40
2023-05-08T01:03:02.240Z,5.30
2023-05-08T01:05:32.340Z,5.33
2023-05-08T01:08:00.972Z,5.77
2023-05-08T01:10:33.969Z,5.20
2023-05-08T01:13:07.917Z,5.10
2023-05-08T01:15:39.395Z,5.37
2023-05-08T01:18:12.594Z,4.70
2023-05-08T01:20:46.253Z,5.70
2023-05-08T01:23:35.921Z,4.97
2023-05-08T01:26:13.756Z,5.87
2023-05-08T01:29:10.104Z,4.77
2023-05-08T01:31:46.904Z,5.83
2023-05-08T01:34:18.892Z,5.00
2023-05-08T01:36:49.647Z,5.37
2023-05-08T01:39:20.091Z,5.60
2023-05-08T01:41:51.763Z,5.53
2023-05-08T01:44:20.985Z,5.83
2023-05-08T01:46:50.810Z,5.30
2023-05-08T01:49:23.568Z,6.23
2023-05-08T01:51:58.259Z,6.03
2023-05-08T01:54:28.891Z,5.27
2023-05-08T01:56:59.040Z,6.17
2023-05-08T01:59:28.225Z,6.13
2023-05-08T02:01:58.545Z,6.43
2023-05-08T02:04:28.636Z,6.00
2023-05-08T02:06:57.470Z,7.13
2023-05-08T02:09:26.325Z,5.60
2023-05-08T02:11:54.928Z,5.73
2023-05-08T02:14:23.547Z,5.00
2023-05-08T02:16:52.823Z,5.67
2023-05-08T02:19:21.437Z,6.60
2023-05-08T02:21:51.392Z,5.97
2023-05-08T02:24:19.958Z,6.10
2023-05-08T02:26:48.617Z,5.60
2023-05-08T02:29:17.172Z,5.33
2023-05-08T02:31:45.783Z,5.63
2023-05-08T02:34:14.432Z,6.70
2023-05-08T02:36:43.032Z,5.63
2023-05-08T02:39:13.698Z,6.50
2023-05-08T02:41:42.594Z,6.57
2023-05-08T02:44:11.254Z,6.00
2023-05-08T02:46:45.355Z,6.57
2023-05-08T02:49:18.233Z,6.47
2023-05-08T02:51:51.899Z,5.97
2023-05-08T02:54:25.199Z,5.90
2023-05-08T02:56:57.182Z,6.57
2023-05-08T02:59:29.306Z,5.87
2023-05-08T03:02:01.116Z,6.33
2023-05-08T03:04:32.297Z,6.20
2023-05-08T03:07:00.878Z,6.00
2023-05-08T03:09:37.313Z,6.30
2023-05-08T03:12:07.622Z,7.57
2023-05-08T03:14:38.340Z,7.43
2023-05-08T03:17:07.733Z,6.00
2023-05-08T03:19:37.205Z,5.40
2023-05-08T03:22:06.279Z,6.50
2023-05-08T03:24:37.577Z,6.60
2023-05-08T03:27:06.300Z,6.50
2023-05-08T03:29:35.392Z,6.93
2023-05-08T03:32:04.372Z,7.30
2023-05-08T03:34:32.982Z,6.67
2023-05-08T03:37:01.601Z,6.50
2023-05-08T03:39:30.156Z,6.93
2023-05-08T03:42:00.158Z,6.20
2023-05-08T03:44:29.097Z,7.27
2023-05-08T03:46:58.464Z,6.20
2023-05-08T03:49:27.394Z,7.37
2023-05-08T03:51:56.480Z,6.20
2023-05-08T03:54:25.694Z,7.43
2023-05-08T03:56:54.880Z,7.23
2023-05-08T03:59:29.352Z,7.20
2023-05-08T04:02:01.487Z,7.43
2023-05-08T04:04:34.789Z,6.50
2023-05-08T04:07:07.170Z,6.83
2023-05-08T04:09:37.392Z,7.00
2023-05-08T04:12:11.933Z,7.33
2023-05-08T04:14:44.276Z,6.70
2023-05-08T04:17:13.242Z,7.00
2023-05-08T04:19:50.355Z,7.10
2023-05-08T04:22:18.940Z,7.23
2023-05-08T04:24:47.626Z,8.00
2023-05-08T04:27:16.315Z,7.63
2023-05-08T04:29:46.297Z,6.73
2023-05-08T04:32:15.079Z,7.40
2023-05-08T04:34:43.841Z,7.30
2023-05-08T04:37:23.105Z,7.33
2023-05-08T04:39:52.632Z,7.80
2023-05-08T04:42:21.335Z,7.23
2023-05-08T04:44:51.373Z,6.60
2023-05-08T04:47:19.987Z,7.13
2023-05-08T04:49:48.619Z,7.20
2023-05-08T04:52:17.172Z,6.70
2023-05-08T04:54:45.786Z,7.23
2023-05-08T04:57:14.740Z,6.00
2023-05-08T04:59:43.372Z,6.67
2023-05-08T05:02:13.285Z,5.50
2023-05-08T05:04:41.828Z,6.20
2023-05-08T05:07:10.465Z,5.50
2023-05-08T05:09:39.268Z,6.20
2023-05-08T05:12:08.390Z,6.33
2023-05-08T05:14:36.930Z,6.77
2023-05-08T05:17:06.135Z,5.70
2023-05-08T05:19:36.114Z,6.00
2023-05-08T05:22:06.220Z,5.67
2023-05-08T05:24:36.017Z,5.90
2023-05-08T05:27:04.661Z,5.07
2023-05-08T05:29:35.028Z,5.13
2023-05-08T05:32:07.451Z,5.13
2023-05-08T05:34:38.796Z,5.40
2023-05-08T05:37:10.773Z,5.90
2023-05-08T05:39:39.352Z,5.47
2023-05-08T05:42:08.068Z,5.57
2023-05-08T05:44:36.680Z,5.07
2023-05-08T05:47:06.342Z,5.00
2023-05-08T05:49:35.086Z,4.77
2023-05-08T05:52:06.179Z,4.80
2023-05-08T05:54:34.884Z,4.60
2023-05-08T05:57:03.466Z,3.80
2023-05-08T05:59:32.138Z,4.60
2023-05-08T06:02:00.936Z,4.27
2023-05-08T06:04:29.744Z,4.80
2023-05-08T06:06:58.412Z,4.00
2023-05-08T06:09:28.792Z,3.87
2023-05-08T06:11:57.449Z,4.40
2023-05-08T06:14:26.095Z,4.33
2023-05-08T06:16:54.696Z,3.93
2023-05-08T06:19:24.185Z,4.00
2023-05-08T06:21:53.092Z,4.90
2023-05-08T06:24:21.765Z,4.37
2023-05-08T06:26:51.802Z,3.60
2023-05-08T06:29:20.339Z,3.83
2023-05-08T06:31:48.925Z,4.30
2023-05-08T06:34:17.529Z,3.93
2023-05-08T06:36:46.196Z,3.43
2023-05-08T06:39:14.764Z,4.17
2023-05-08T06:41:43.325Z,4.00
2023-05-08T06:44:13.535Z,4.13
2023-05-08T06:46:42.206Z,4.00
2023-05-08T06:49:10.862Z,3.77
2023-05-08T06:51:39.492Z,3.73
2023-05-08T06:54:08.704Z,2.70
2023-05-08T06:56:37.277Z,2.60
2023-05-08T06:59:08.824Z,2.50
2023-05-08T07:01:39.426Z,2.73
2023-05-08T07:04:08.169Z,3.00
2023-05-08T07:06:36.743Z,2.20
2023-05-08T07:09:05.494Z,2.80
2023-05-08T07:11:34.150Z,2.93
2023-05-08T07:14:02.761Z,2.73
2023-05-08T07:16:31.362Z,2.67
2023-05-08T07:19:01.464Z,2.50
2023-05-08T07:21:30.735Z,2.07
2023-05-08T07:23:59.469Z,2.80
2023-05-08T07:26:28.142Z,2.40
2023-05-08T07:28:56.755Z,2.60
2023-05-08T07:31:25.501Z,2.60
2023-05-08T07:33:54.140Z,2.80
2023-05-08T07:36:24.067Z,2.53
2023-05-08T07:38:52.690Z,3.10
2023-05-08T07:41:21.259Z,2.70
2023-05-08T07:43:49.971Z,2.20
2023-05-08T07:46:18.936Z,2.80
2023-05-08T07:48:47.666Z,2.80
2023-05-08T07:51:16.462Z,2.33
2023-05-08T07:53:48.716Z,2.23
2023-05-08T07:56:17.429Z,2.53
2023-05-08T07:58:47.872Z,2.40
2023-05-08T08:01:18.100Z,1.77
2023-05-08T08:03:47.191Z,2.10
2023-05-08T08:06:15.854Z,2.03
2023-05-08T08:08:45.869Z,2.50
2023-05-08T08:11:14.485Z,2.30
2023-05-08T08:13:43.196Z,2.00
2023-05-08T08:16:11.784Z,2.80
2023-05-08T08:18:40.401Z,2.00
2023-05-08T08:21:09.204Z,1.80
2023-05-08T08:23:38.281Z,2.10
2023-05-08T08:26:08.330Z,3.10
2023-05-08T08:28:36.973Z,1.87
2023-05-08T08:31:05.682Z,1.97
2023-05-08T08:33:34.338Z,1.93
2023-05-08T08:36:03.736Z,2.20
2023-05-08T08:38:32.355Z,1.97
2023-05-08T08:41:00.955Z,2.00
2023-05-08T08:43:31.007Z,2.50
2023-05-08T08:46:00.879Z,2.57
2023-05-08T08:48:30.313Z,2.03
2023-05-08T08:51:01.454Z,2.30
2023-05-08T08:53:32.259Z,2.47
2023-05-08T08:56:00.917Z,2.20
2023-05-08T08:58:36.596Z,1.90
2023-05-08T09:01:07.041Z,2.23
2023-05-08T09:03:35.768Z,2.30
2023-05-08T09:06:04.533Z,1.90
2023-05-08T09:08:33.158Z,2.03
2023-05-08T09:11:01.783Z,1.80
2023-05-08T09:13:32.150Z,2.33
2023-05-08T09:16:00.893Z,1.80
2023-05-08T09:18:29.532Z,1.83
2023-05-08T09:20:58.323Z,2.17
2023-05-08T09:23:27.004Z,2.33
2023-05-08T09:25:56.772Z,2.30
2023-05-08T09:28:26.124Z,2.07
2023-05-08T09:30:56.741Z,2.33
2023-05-08T09:33:26.358Z,1.80
2023-05-08T09:35:55.268Z,1.80
2023-05-08T09:38:37.192Z,2.23
2023-05-08T09:41:09.668Z,1.83
2023-05-08T09:43:38.415Z,1.70
2023-05-08T09:46:34.016Z,2.10
2023-05-08T09:49:03.434Z,1.90
2023-05-08T09:51:32.562Z,2.10
2023-05-08T09:54:04.080Z,1.73
2023-05-08T09:56:33.920Z,2.20
2023-05-08T09:59:03.229Z,1.73
2023-05-08T10:01:33.929Z,1.80
2023-05-08T10:04:02.764Z,1.77
2023-05-08T10:06:31.469Z,1.80
2023-05-08T10:09:13.008Z,1.97
2023-05-08T10:11:41.998Z,1.77
2023-05-08T10:14:10.687Z,1.80
2023-05-08T10:16:42.994Z,2.23
2023-05-08T10:19:15.161Z,2.03
2023-05-08T10:21:45.197Z,1.57
2023-05-08T10:24:16.792Z,2.00
2023-05-08T10:27:05.599Z,1.93
2023-05-08T10:29:39.117Z,1.77
2023-05-08T10:32:10.036Z,1.90
2023-05-08T10:34:39.867Z,1.80
2023-05-08T10:37:08.758Z,1.80
2023-05-08T10:39:37.429Z,1.93
2023-05-08T10:42:06.207Z,1.73
2023-05-08T10:44:34.795Z,1.80
2023-05-08T10:47:06.516Z,1.80
2023-05-08T10:49:41.363Z,1.40
2023-05-08T10:52:14.495Z,1.80
2023-05-08T10:54:51.361Z,1.43
2023-05-08T10:57:19.888Z,1.80
2023-05-08T10:59:48.613Z,1.60
2023-05-08T11:02:17.572Z,1.50
2023-05-08T11:04:47.715Z,1.77
2023-05-08T11:07:16.523Z,1.67
2023-05-08T11:09:49.165Z,1.90
2023-05-08T11:12:24.598Z,1.70
2023-05-08T11:14:59.120Z,1.70
2023-05-08T11:17:27.961Z,1.73
2023-05-08T11:19:59.397Z,1.87
2023-05-08T11:22:29.335Z,1.53
2023-05-08T11:25:08.603Z,2.10
2023-05-08T11:27:42.595Z,1.70
2023-05-08T11:30:28.306Z,1.80
2023-05-08T11:33:15.574Z,1.73
2023-05-08T11:35:53.424Z,1.73
2023-05-08T11:38:24.710Z,1.90
2023-05-08T11:41:06.693Z,2.13
2023-05-08T11:44:07.777Z,1.60
2023-05-08T11:46:44.678Z,1.83
2023-05-08T11:49:15.490Z,1.77
2023-05-08T11:51:46.260Z,1.50
2023-05-08T11:54:15.653Z,1.80
2023-05-08T11:56:46.255Z,1.73
2023-05-08T11:59:16.286Z,2.37
2023-05-08T12:01:53.551Z,1.87
2023-05-08T12:04:29.063Z,1.60
2023-05-08T12:07:00.625Z,1.67
2023-05-08T12:09:29.291Z,1.40
2023-05-08T12:12:00.780Z,2.17
2023-05-08T12:14:29.411Z,1.97
2023-05-08T12:16:58.073Z,2.23
2023-05-08T12:19:26.712Z,1.80
2023-05-08T12:21:55.332Z,1.40
2023-05-08T12:24:26.710Z,1.83
2023-05-08T12:26:56.648Z,2.40
2023-05-08T12:29:28.030Z,1.93
2023-05-08T12:31:56.660Z,1.50
2023-05-08T12:34:25.324Z,1.60
2023-05-08T12:37:04.197Z,1.63
2023-05-08T12:39:38.399Z,2.00
2023-05-08T12:42:07.107Z,1.77
2023-05-08T12:44:35.715Z,1.57
2023-05-08T12:47:05.604Z,1.90
2023-05-08T12:49:34.408Z,1.60
2023-05-08T12:52:07.378Z,2.00
2023-05-08T12:54:41.139Z,1.60
2023-05-08T12:57:13.070Z,1.80
2023-05-08T12:59:41.819Z,1.50
2023-05-08T13:02:17.208Z,1.83
2023-05-08T13:04:46.703Z,1.90
2023-05-08T13:07:15.596Z,1.70
2023-05-08T13:09:59.755Z,1.53
2023-05-08T13:12:28.419Z,1.53
2023-05-08T13:14:57.057Z,1.60
2023-05-08T13:17:25.897Z,1.43
2023-05-08T13:19:54.471Z,1.73
2023-05-08T13:22:26.551Z,1.33
2023-05-08T13:24:55.187Z,1.73
2023-05-08T13:27:25.220Z,1.80
2023-05-08T13:29:53.882Z,1.70
2023-05-08T13:32:22.589Z,1.60
2023-05-08T13:34:53.111Z,1.60
2023-05-08T13:37:24.959Z,2.00
2023-05-08T13:39:53.600Z,1.63
2023-05-08T13:42:22.258Z,1.70
2023-05-08T13:44:52.270Z,1.43
2023-05-08T13:47:20.912Z,1.60
2023-05-08T13:49:50.297Z,1.50
2023-05-08T13:52:18.926Z,1.57
2023-05-08T13:54:47.501Z,1.40
2023-05-08T13:57:16.123Z,2.07
2023-05-08T13:59:44.736Z,2.20
2023-05-08T14:02:14.848Z,1.57
2023-05-08T14:04:43.512Z,1.57
2023-05-08T14:07:12.086Z,1.90
2023-05-08T14:09:40.782Z,1.50
2023-05-08T14:12:09.389Z,1.80
2023-05-08T14:14:38.025Z,1.30
2023-05-08T14:17:06.620Z,2.00
2023-05-08T14:19:36.675Z,1.90
2023-05-08T14:22:06.897Z,1.90
2023-05-08T14:24:35.545Z,1.90
2023-05-08T14:27:05.953Z,1.80
2023-05-08T14:29:34.832Z,2.50
2023-05-08T14:32:03.708Z,1.90
2023-05-08T14:34:32.542Z,2.73
2023-05-08T14:37:02.556Z,1.80
2023-05-08T14:39:31.165Z,1.93
2023-05-08T14:44:34.371Z,1.57
2023-05-08T14:47:03.054Z,1.90
2023-05-08T14:52:22.319Z,1.80
2023-05-08T14:54:53.471Z,1.30
2023-05-08T14:57:22.505Z,2.20
2023-05-08T15:02:22.765Z,1.20
2023-05-08T15:04:51.497Z,1.90
2023-05-08T15:07:21.667Z,1.80
2023-05-08T15:09:50.766Z,2.27
2023-05-08T15:12:19.374Z,2.10
2023-05-08T15:14:47.950Z,2.00
2023-05-08T15:17:16.578Z,1.40
2023-05-08T15:19:45.720Z,2.10
2023-05-08T15:22:14.322Z,1.80
2023-05-08T15:24:44.397Z,2.60
2023-05-08T15:27:13.050Z,1.67
2023-05-08T15:29:41.644Z,1.93
2023-05-08T15:32:10.546Z,1.63
2023-05-08T15:34:40.754Z,1.70
2023-05-08T15:37:09.566Z,1.80
2023-05-08T15:39:38.210Z,1.90
2023-05-08T15:42:08.352Z,1.60
2023-05-08T15:44:53.934Z,1.83
2023-05-08T15:47:23.892Z,1.63
2023-05-08T15:49:52.449Z,2.70
2023-05-08T15:52:21.184Z,1.60
2023-05-08T15:54:49.845Z,2.20
2023-05-08T15:57:19.755Z,1.70
2023-05-08T15:59:48.362Z,1.90
2023-05-08T16:02:17.030Z,2.30
2023-05-08T16:04:45.666Z,2.00
2023-05-08T16:07:14.624Z,2.03
2023-05-08T16:09:43.202Z,2.03
2023-05-08T16:12:11.757Z,1.70
2023-05-08T16:14:41.678Z,1.70
2023-05-08T16:17:10.200Z,2.30
2023-05-08T16:19:39.445Z,1.97
2023-05-08T16:22:08.047Z,1.80
2023-05-08T16:24:36.632Z,1.63
2023-05-08T16:27:05.273Z,2.23
2023-05-08T16:29:33.814Z,1.60
2023-05-08T16:32:03.743Z,2.07
2023-05-08T16:34:32.309Z,1.27
2023-05-08T16:37:00.864Z,1.90
2023-05-08T16:39:29.466Z,1.93
2023-05-08T16:41:58.012Z,2.10
2023-05-08T16:44:26.603Z,1.93
2023-05-08T16:46:55.162Z,1.60
2023-05-08T16:49:25.114Z,2.70
2023-05-08T16:51:53.651Z,1.93
2023-05-08T16:54:22.185Z,1.73
2023-05-08T16:56:50.738Z,2.80
2023-05-08T16:59:19.281Z,2.33
2023-05-08T17:01:47.877Z,2.00
2023-05-08T17:04:16.461Z,1.80
2023-05-08T17:06:46.497Z,1.93
2023-05-08T17:09:14.994Z,1.83
2023-05-08T17:11:43.740Z,1.50
2023-05-08T17:14:12.298Z,1.73
2023-05-08T17:16:41.017Z,1.53
2023-05-08T17:19:09.663Z,1.60
2023-05-08T17:21:38.254Z,2.20
2023-05-08T17:24:08.973Z,1.80
2023-05-08T17:26:37.509Z,2.17
2023-05-08T17:29:06.028Z,1.93
2023-05-08T17:31:34.585Z,1.87
2023-05-08T17:34:03.175Z,1.60
2023-05-08T17:36:31.728Z,2.00
2023-05-08T17:39:00.290Z,1.77
2023-05-08T17:41:30.246Z,1.50
2023-05-08T17:43:58.802Z,1.90
2023-05-08T17:46:27.377Z,2.23
2023-05-08T17:48:55.936Z,2.10
2023-05-08T17:51:24.479Z,2.07
2023-05-08T17:53:53.521Z,1.70
2023-05-08T17:56:23.271Z,1.93
2023-05-08T17:58:53.362Z,2.27
2023-05-08T18:01:21.938Z,2.00
2023-05-08T18:03:50.529Z,1.80
2023-05-08T18:06:19.173Z,2.23
2023-05-08T18:08:48.033Z,2.07
2023-05-08T18:11:20.203Z,2.10
2023-05-08T18:13:48.761Z,3.23
2023-05-08T18:16:19.272Z,2.37
2023-05-08T18:18:47.868Z,1.63
2023-05-08T18:21:16.444Z,2.00
2023-05-08T18:23:44.979Z,1.80
2023-05-08T18:26:15.691Z,2.17
2023-05-08T18:28:44.367Z,1.30
2023-05-08T18:31:13.378Z,2.00
2023-05-08T18:33:43.352Z,2.33
2023-05-08T18:36:11.869Z,2.47
2023-05-08T18:38:41.585Z,2.33
2023-05-08T18:41:10.136Z,1.93
2023-05-08T18:43:38.889Z,2.33
2023-05-08T18:46:12.300Z,1.90
2023-05-08T18:48:42.409Z,2.10
2023-05-08T18:51:11.137Z,2.50
2023-05-08T18:53:40.684Z,2.17
2023-05-08T18:56:09.267Z,2.00
2023-05-08T18:58:37.921Z,2.50
2023-05-08T19:01:06.973Z,2.97
2023-05-08T19:03:35.665Z,1.77
2023-05-08T19:06:06.424Z,1.87
2023-05-08T19:08:35.083Z,2.13
2023-05-08T19:11:03.619Z,2.40
2023-05-08T19:13:32.208Z,2.70
2023-05-08T19:16:00.821Z,2.43
2023-05-08T19:18:29.806Z,2.53
2023-05-08T19:20:58.465Z,3.10
2023-05-08T19:23:28.437Z,3.97
2023-05-08T19:25:57.011Z,3.10
2023-05-08T19:28:25.665Z,3.50
2023-05-08T19:30:54.236Z,3.80
2023-05-08T19:33:22.856Z,3.20
2023-05-08T19:35:51.478Z,3.30
2023-05-08T19:38:20.163Z,2.83
2023-05-08T19:40:57.274Z,3.10
2023-05-08T19:43:26.970Z,3.13
2023-05-08T19:45:56.135Z,3.17
2023-05-08T19:48:24.887Z,3.67
2023-05-08T19:50:55.070Z,3.40
2023-05-08T19:53:24.062Z,2.80
2023-05-08T19:55:54.081Z,3.10
2023-05-08T19:58:22.804Z,3.77
2023-05-08T20:00:51.938Z,3.60
2023-05-08T20:03:20.977Z,3.33
2023-05-08T20:05:49.657Z,3.20
2023-05-08T20:08:18.337Z,3.43
2023-05-08T20:10:48.862Z,2.90
2023-05-08T20:13:19.082Z,3.00
2023-05-08T20:15:47.776Z,3.37
2023-05-08T20:18:16.459Z,2.33
2023-05-08T20:20:46.133Z,3.03
2023-05-08T20:23:14.854Z,2.87
2023-05-08T20:25:46.154Z,3.33
2023-05-08T20:28:14.977Z,3.50
2023-05-08T20:30:44.994Z,4.40
2023-05-08T20:33:13.735Z,3.37
2023-05-08T20:35:42.430Z,3.30
2023-05-08T20:38:11.394Z,3.00
2023-05-08T20:40:40.304Z,2.77
2023-05-08T20:43:09.475Z,3.30
2023-05-08T20:45:38.199Z,3.20
2023-05-08T20:48:08.604Z,2.93
2023-05-08T20:50:37.233Z,3.30
2023-05-08T20:53:05.976Z,2.83
2023-05-08T20:55:34.555Z,3.60
2023-05-08T20:58:04.200Z,3.90
2023-05-08T21:00:34.399Z,3.63
2023-05-08T21:03:03.111Z,2.87
2023-05-08T21:05:33.182Z,3.27
2023-05-08T21:08:03.473Z,2.90
2023-05-08T21:10:32.216Z,3.07
2023-05-08T21:13:00.930Z,3.90
2023-05-08T21:15:29.611Z,3.10
2023-05-08T21:17:58.266Z,2.97
2023-05-08T21:20:26.904Z,3.70
2023-05-08T21:22:56.893Z,2.90
2023-05-08T21:25:25.755Z,3.37
2023-05-08T21:27:55.488Z,2.60
2023-05-08T21:30:24.217Z,2.90
2023-05-08T21:32:52.883Z,3.10
2023-05-08T21:35:22.198Z,3.10
2023-05-08T21:37:54.500Z,3.10
2023-05-08T21:40:25.007Z,2.50
2023-05-08T21:42:53.540Z,3.40
2023-05-08T21:45:22.535Z,3.37
2023-05-08T21:47:51.150Z,3.23
2023-05-08T21:50:20.009Z,3.30
2023-05-08T21:52:48.676Z,3.30
2023-05-08T21:55:17.333Z,2.63
2023-05-08T21:57:47.361Z,2.93
2023-05-08T22:00:16.886Z,3.00
2023-05-08T22:02:45.674Z,3.63
2023-05-08T22:05:14.783Z,2.87
2023-05-08T22:07:43.679Z,2.90
2023-05-08T22:10:13.864Z,3.93
2023-05-08T22:12:42.497Z,2.63
2023-05-08T22:15:25.491Z,3.20
2023-05-08T22:17:58.119Z,3.40
2023-05-08T22:20:26.768Z,3.03
2023-05-08T22:22:55.441Z,3.60
2023-05-08T22:25:25.223Z,3.00
2023-05-08T22:27:53.881Z,3.10
2023-05-08T22:30:23.941Z,2.53
2023-05-08T22:32:55.639Z,3.07
2023-05-08T22:35:24.871Z,3.43
2023-05-08T22:37:53.611Z,3.37
2023-05-08T22:40:22.538Z,3.13
2023-05-08T22:42:53.404Z,2.77
2023-05-08T22:45:23.563Z,2.63
2023-05-08T22:47:52.225Z,3.90
2023-05-08T22:50:21.183Z,3.67
2023-05-08T22:52:49.792Z,3.20
2023-05-08T22:55:18.457Z,3.20
2023-05-08T22:57:47.063Z,3.70
2023-05-08T23:00:17.320Z,3.20
2023-05-08T23:02:47.344Z,4.07
2023-05-08T23:05:16.258Z,3.57
2023-05-08T23:07:45.150Z,3.30
2023-05-08T23:10:14.226Z,3.50
2023-05-08T23:12:42.808Z,3.70
2023-05-08T23:15:12.900Z,3.87
2023-05-08T23:17:41.812Z,4.50
2023-05-08T23:20:12.793Z,3.40
2023-05-08T23:22:41.404Z,3.47
2023-05-08T23:25:12.516Z,3.27
2023-05-08T23:27:41.280Z,3.50
2023-05-08T23:30:12.859Z,3.40
2023-05-08T23:32:41.646Z,3.50
2023-05-08T23:35:12.080Z,3.37
2023-05-08T23:37:40.809Z,3.63
2023-05-08T23:40:10.745Z,3.33
2023-05-08T23:42:39.845Z,3.80
2023-05-08T23:45:09.533Z,3.87
2023-05-08T23:47:38.390Z,3.17
2023-05-08T23:50:08.146Z,3.20
2023-05-08T23:52:38.161Z,3.87
2023-05-08T23:55:07.574Z,3.60
2023-05-08T23:57:36.169Z,3.67
